createdAt,value
2019-01-30T00:01:39.606Z,24.63
2019-01-30T00:04:09.186Z,24.37
2019-01-30T00:06:38.366Z,24.37
2019-01-30T00:09:09.708Z,23.57
2019-01-30T00:11:39.206Z,26.20
2019-01-30T00:14:09.291Z,25.23
2019-01-30T00:16:39.105Z,27.70
2019-01-30T00:19:08.486Z,22.93
2019-01-30T00:21:38.285Z,26.93
2019-01-30T00:24:08.303Z,23.10
2019-01-30T00:26:38.347Z,26.40
2019-01-30T00:29:08.349Z,27.33
2019-01-30T00:31:37.704Z,26.40
2019-01-30T00:34:07.368Z,25.63
2019-01-30T00:36:36.925Z,25.07
2019-01-30T00:39:08.191Z,26.60
2019-01-30T00:41:37.284Z,24.90
2019-01-30T00:44:07.046Z,26.40
2019-01-30T00:46:37.765Z,27.10
2019-01-30T00:49:07.206Z,25.17
2019-01-30T00:51:36.588Z,23.63
2019-01-30T00:54:06.406Z,24.50
2019-01-30T00:56:36.125Z,25.87
2019-01-30T00:59:05.669Z,25.00
2019-01-30T01:01:35.295Z,25.13
2019-01-30T01:04:05.150Z,27.70
2019-01-30T01:06:34.510Z,25.43
2019-01-30T01:09:05.949Z,25.20
2019-01-30T01:11:35.211Z,25.17
2019-01-30T01:14:04.801Z,22.70
2019-01-30T01:16:35.221Z,25.43
2019-01-30T01:19:04.881Z,23.10
2019-01-30T01:21:34.060Z,24.77
2019-01-30T01:24:03.521Z,23.07
2019-01-30T01:26:32.821Z,25.10
2019-01-30T01:29:02.040Z,22.87
2019-01-30T01:31:34.161Z,23.93
2019-01-30T01:34:03.700Z,22.90
2019-01-30T01:36:33.161Z,24.47
2019-01-30T01:39:02.401Z,22.10
2019-01-30T01:41:31.521Z,23.17
2019-01-30T01:44:01.181Z,26.93
2019-01-30T01:46:30.481Z,27.17
2019-01-30T01:48:59.860Z,25.93
2019-01-30T01:51:29.601Z,27.30
2019-01-30T01:53:58.721Z,25.73
2019-01-30T01:56:28.143Z,28.70
2019-01-30T01:58:57.701Z,26.83
2019-01-30T02:01:27.126Z,25.67
2019-01-30T02:03:56.428Z,26.57
2019-01-30T02:06:26.013Z,22.50
2019-01-30T02:08:58.008Z,23.23
2019-01-30T02:11:27.216Z,24.33
2019-01-30T02:13:56.890Z,24.67
2019-01-30T02:16:26.068Z,25.93
2019-01-30T02:18:55.262Z,23.93
2019-01-30T02:21:25.521Z,29.07
2019-01-30T02:23:54.883Z,22.73
2019-01-30T02:26:24.060Z,27.43
2019-01-30T02:28:53.440Z,27.47
2019-01-30T02:31:22.662Z,26.73
2019-01-30T02:33:52.183Z,27.40
2019-01-30T02:36:21.381Z,27.20
2019-01-30T02:38:51.182Z,26.27
2019-01-30T02:41:20.682Z,26.53
2019-01-30T02:44:02.687Z,25.83
2019-01-30T02:46:32.017Z,28.33
2019-01-30T02:49:02.730Z,27.43
2019-01-30T02:51:31.767Z,27.17
2019-01-30T02:54:01.640Z,26.43
2019-01-30T02:56:31.010Z,23.83
2019-01-30T02:59:00.807Z,24.63
2019-01-30T03:01:30.193Z,23.83
2019-01-30T03:03:59.531Z,24.80
2019-01-30T03:06:39.374Z,25.40
2019-01-30T03:09:10.071Z,25.50
2019-01-30T03:11:39.493Z,26.13
2019-01-30T03:14:08.971Z,27.47
2019-01-30T03:16:38.091Z,23.63
2019-01-30T03:19:07.110Z,24.50
2019-01-30T03:21:36.651Z,23.40
2019-01-30T03:24:06.090Z,26.07
2019-01-30T03:26:35.451Z,26.37
2019-01-30T03:29:05.250Z,27.03
2019-01-30T03:31:34.412Z,25.03
2019-01-30T03:34:03.484Z,27.17
2019-01-30T03:36:32.690Z,25.27
2019-01-30T03:39:01.931Z,27.97
2019-01-30T03:41:31.192Z,25.03
2019-01-30T03:44:00.470Z,22.87
2019-01-30T03:46:29.791Z,26.47
2019-01-30T03:48:59.212Z,28.50
2019-01-30T03:51:28.370Z,24.33
2019-01-30T03:53:57.772Z,23.80
2019-01-30T03:56:27.495Z,25.80
2019-01-30T03:58:57.050Z,26.33
2019-01-30T04:01:27.089Z,26.60
2019-01-30T04:03:56.806Z,27.17
2019-01-30T04:06:25.829Z,27.67
2019-01-30T04:08:54.962Z,22.77
2019-01-30T04:11:24.801Z,26.63
2019-01-30T04:13:54.244Z,25.60
2019-01-30T04:16:23.781Z,26.67
2019-01-30T04:18:54.082Z,25.03
2019-01-30T04:21:23.222Z,25.90
2019-01-30T04:23:53.461Z,25.43
2019-01-30T04:26:24.069Z,26.87
2019-01-30T04:28:53.441Z,25.40
2019-01-30T04:31:23.544Z,23.33
2019-01-30T04:33:52.643Z,26.97
2019-01-30T04:36:21.942Z,25.17
2019-01-30T04:38:52.142Z,24.57
2019-01-30T04:41:21.563Z,26.40
2019-01-30T04:43:51.728Z,25.60
2019-01-30T04:46:20.801Z,24.07
2019-01-30T04:48:50.419Z,24.03
2019-01-30T04:51:19.621Z,23.27
2019-01-30T04:53:49.121Z,26.00
2019-01-30T04:56:18.609Z,23.03
2019-01-30T04:58:47.683Z,24.53
2019-01-30T05:01:16.969Z,23.20
2019-01-30T05:03:46.648Z,22.73
2019-01-30T05:06:15.690Z,24.40
2019-01-30T05:08:45.592Z,23.70
2019-01-30T05:11:14.888Z,25.87
2019-01-30T05:13:44.336Z,23.90
2019-01-30T05:16:13.729Z,24.93
2019-01-30T05:18:43.212Z,24.03
2019-01-30T05:21:12.610Z,28.00
2019-01-30T05:23:42.093Z,26.40
2019-01-30T05:26:11.850Z,25.20
2019-01-30T05:28:41.609Z,30.00
2019-01-30T05:31:11.053Z,23.63
2019-01-30T05:33:40.370Z,27.10
2019-01-30T05:36:09.931Z,22.53
2019-01-30T05:38:39.049Z,23.57
2019-01-30T05:41:08.460Z,22.43
2019-01-30T05:43:37.841Z,24.33
2019-01-30T05:46:07.042Z,25.07
2019-01-30T05:48:36.162Z,22.97
2019-01-30T05:51:06.080Z,26.57
2019-01-30T05:53:35.340Z,25.13
2019-01-30T05:56:05.261Z,27.93
2019-01-30T05:58:34.801Z,24.20
2019-01-30T06:01:04.327Z,22.13
2019-01-30T06:03:33.770Z,25.20
2019-01-30T06:06:03.208Z,23.20
2019-01-30T06:08:32.470Z,24.73
2019-01-30T06:11:01.728Z,22.10
2019-01-30T06:13:31.290Z,23.93
2019-01-30T06:16:00.727Z,26.23
2019-01-30T06:18:30.149Z,22.67
2019-01-30T06:20:59.913Z,23.03
2019-01-30T06:23:29.610Z,27.47
2019-01-30T06:25:59.570Z,23.70
2019-01-30T06:28:29.349Z,24.33
2019-01-30T06:30:58.889Z,26.20
2019-01-30T06:33:27.987Z,22.50
2019-01-30T06:35:57.368Z,25.67
2019-01-30T06:38:26.436Z,23.40
2019-01-30T06:40:55.750Z,25.50
2019-01-30T06:43:25.293Z,29.00
2019-01-30T06:45:54.608Z,26.20
2019-01-30T06:48:23.948Z,25.80
2019-01-30T06:50:53.450Z,25.17
2019-01-30T06:53:23.228Z,25.03
2019-01-30T06:55:52.967Z,24.53
2019-01-30T06:58:22.488Z,27.13
2019-01-30T07:00:52.799Z,27.10
2019-01-30T07:03:22.446Z,24.37
2019-01-30T07:05:51.668Z,28.67
2019-01-30T07:08:21.447Z,24.67
2019-01-30T07:10:50.887Z,23.10
2019-01-30T07:13:20.927Z,24.70
2019-01-30T07:15:50.706Z,25.57
2019-01-30T07:18:20.445Z,26.63
2019-01-30T07:20:49.879Z,23.73
2019-01-30T07:23:18.883Z,22.10
2019-01-30T07:25:50.911Z,25.00
2019-01-30T07:28:19.869Z,30.90
2019-01-30T07:30:49.527Z,26.27
2019-01-30T07:33:19.045Z,33.87
2019-01-30T07:35:48.047Z,24.27
2019-01-30T07:38:31.829Z,22.87
2019-01-30T07:41:01.725Z,27.00
2019-01-30T07:43:31.288Z,24.50
2019-01-30T07:46:01.286Z,25.90
2019-01-30T07:48:30.404Z,24.07
2019-01-30T07:50:59.960Z,25.03
2019-01-30T07:53:29.581Z,20.03
2019-01-30T07:55:58.722Z,25.30
2019-01-30T07:58:27.946Z,21.20
2019-01-30T08:00:56.957Z,19.97
2019-01-30T08:03:27.260Z,20.33
2019-01-30T08:05:56.624Z,22.17
2019-01-30T08:08:26.828Z,20.90
2019-01-30T08:10:56.161Z,22.07
2019-01-30T08:15:51.301Z,21.67
2019-01-30T08:18:20.480Z,21.43
2019-01-30T08:20:49.862Z,21.57
2019-01-30T08:23:21.420Z,18.53
2019-01-30T08:25:51.744Z,21.13
2019-01-30T08:28:21.250Z,21.23
2019-01-30T08:30:50.416Z,16.77
2019-01-30T08:35:49.509Z,21.60
2019-01-30T08:38:18.711Z,20.80
2019-01-30T08:40:48.004Z,21.33
2019-01-30T08:43:36.243Z,21.47
2019-01-30T08:46:05.973Z,21.70
2019-01-30T08:48:35.406Z,19.73
2019-01-30T08:51:04.805Z,21.20
2019-01-30T08:53:33.739Z,21.60
2019-01-30T08:56:02.863Z,22.10
2019-01-30T08:58:32.305Z,20.17
2019-01-30T09:01:01.449Z,20.17
2019-01-30T09:03:30.489Z,20.90
2019-01-30T09:06:00.258Z,20.27
2019-01-30T09:08:29.337Z,20.10
2019-01-30T09:10:58.560Z,19.60
2019-01-30T09:13:26.017Z,18.90
2019-01-30T09:15:55.298Z,20.47
2019-01-30T09:18:24.561Z,20.97
2019-01-30T09:20:53.696Z,19.07
2019-01-30T09:25:56.986Z,17.67
2019-01-30T09:28:26.425Z,17.37
2019-01-30T09:31:03.742Z,19.30
2019-01-30T09:33:33.788Z,16.33
2019-01-30T09:36:04.265Z,16.67
2019-01-30T09:38:33.776Z,17.40
2019-01-30T09:41:03.449Z,16.23
2019-01-30T09:43:32.583Z,15.63
2019-01-30T09:46:02.004Z,15.23
2019-01-30T09:48:33.828Z,18.47
2019-01-30T09:51:03.111Z,17.50
2019-01-30T09:53:32.484Z,17.00
2019-01-30T09:56:03.803Z,18.13
2019-01-30T09:58:33.684Z,17.87
2019-01-30T10:01:02.975Z,20.63
2019-01-30T10:03:36.503Z,16.00
2019-01-30T10:06:02.995Z,15.43
2019-01-30T10:08:32.412Z,14.77
2019-01-30T10:11:01.843Z,19.37
2019-01-30T10:13:31.063Z,18.77
2019-01-30T10:16:00.743Z,16.53
2019-01-30T10:18:29.823Z,15.07
2019-01-30T10:20:59.283Z,17.80
2019-01-30T10:23:28.664Z,15.83
2019-01-30T10:25:58.184Z,17.33
2019-01-30T10:28:27.249Z,17.43
2019-01-30T10:30:56.764Z,18.23
2019-01-30T10:35:57.223Z,17.77
2019-01-30T10:38:27.266Z,16.53
2019-01-30T10:40:56.683Z,18.23
2019-01-30T10:43:25.844Z,16.17
2019-01-30T10:45:55.470Z,19.10
2019-01-30T10:48:24.463Z,17.70
2019-01-30T10:50:53.803Z,19.30
2019-01-30T10:55:54.963Z,16.60
2019-01-30T10:58:24.063Z,17.60
2019-01-30T11:00:54.805Z,16.43
2019-01-30T11:05:57.783Z,19.73
2019-01-30T11:08:27.543Z,19.10
2019-01-30T11:11:07.148Z,18.77
2019-01-30T11:13:29.043Z,14.30
2019-01-30T11:16:01.079Z,14.93
2019-01-30T11:18:41.043Z,14.47
2019-01-30T11:21:10.546Z,20.47
2019-01-30T11:23:40.248Z,17.90
2019-01-30T11:26:09.624Z,17.37
2019-01-30T11:28:38.603Z,22.47
2019-01-30T11:31:09.003Z,17.60
2019-01-30T11:33:38.204Z,20.30
2019-01-30T11:36:10.379Z,17.83
2019-01-30T11:38:43.515Z,15.33
2019-01-30T11:41:13.328Z,15.97
2019-01-30T11:43:42.830Z,16.47
2019-01-30T11:46:13.615Z,17.67
2019-01-30T11:48:42.934Z,14.43
2019-01-30T11:51:12.411Z,13.40
2019-01-30T11:53:41.843Z,15.57
2019-01-30T11:56:11.211Z,16.83
2019-01-30T11:58:40.351Z,15.20
2019-01-30T12:01:09.533Z,16.00
2019-01-30T12:06:09.452Z,18.13
2019-01-30T12:08:38.551Z,15.00
2019-01-30T12:11:07.934Z,17.27
2019-01-30T12:13:36.952Z,17.63
2019-01-30T12:16:06.412Z,19.00
2019-01-30T12:18:36.027Z,19.70
2019-01-30T12:21:05.644Z,18.77
2019-01-30T12:23:34.424Z,17.90
2019-01-30T12:26:03.963Z,18.20
2019-01-30T12:28:33.363Z,18.87
2019-01-30T12:31:02.404Z,20.37
2019-01-30T12:33:31.867Z,17.93
2019-01-30T12:36:01.043Z,18.30
2019-01-30T12:38:30.223Z,21.13
2019-01-30T12:40:59.463Z,20.70
2019-01-30T12:46:03.603Z,20.67
2019-01-30T12:48:33.124Z,17.13
2019-01-30T12:51:02.451Z,17.37
2019-01-30T12:53:31.793Z,17.60
2019-01-30T12:56:00.810Z,15.87
2019-01-30T12:58:30.089Z,15.50
2019-01-30T13:00:59.269Z,17.27
2019-01-30T13:03:28.410Z,16.87
2019-01-30T13:05:57.769Z,17.67
2019-01-30T13:08:26.910Z,16.80
2019-01-30T13:10:56.690Z,16.70
2019-01-30T13:13:26.163Z,17.43
2019-01-30T13:15:55.293Z,17.00
2019-01-30T13:18:24.612Z,17.37
2019-01-30T13:20:54.352Z,18.53
2019-01-30T13:23:45.711Z,15.57
2019-01-30T13:26:14.983Z,21.13
2019-01-30T13:28:44.552Z,18.57
2019-01-30T13:31:14.204Z,17.10
2019-01-30T13:33:43.344Z,16.63
2019-01-30T13:36:12.883Z,19.53
2019-01-30T13:38:42.004Z,18.17
2019-01-30T13:41:11.599Z,17.17
2019-01-30T13:43:41.223Z,16.53
2019-01-30T13:46:10.362Z,14.30
2019-01-30T13:48:39.794Z,13.80
2019-01-30T13:51:11.178Z,11.83
2019-01-30T13:53:44.484Z,13.43
2019-01-30T13:56:13.852Z,13.33
2019-01-30T13:58:43.257Z,12.07
2019-01-30T14:01:17.535Z,13.20
2019-01-30T14:03:46.776Z,15.20
2019-01-30T14:06:19.327Z,19.27
2019-01-30T14:08:50.068Z,13.73
2019-01-30T14:11:19.057Z,16.17
2019-01-30T14:13:48.242Z,15.97
2019-01-30T14:16:17.409Z,19.20
2019-01-30T14:18:46.853Z,16.97
2019-01-30T14:21:17.448Z,18.90
2019-01-30T14:23:47.097Z,14.17
2019-01-30T14:26:16.088Z,18.00
2019-01-30T14:28:45.069Z,22.03
2019-01-30T14:31:14.329Z,24.03
2019-01-30T14:33:43.862Z,18.70
2019-01-30T14:36:20.124Z,21.17
2019-01-30T14:38:49.153Z,21.00
2019-01-30T14:41:18.802Z,21.63
2019-01-30T14:43:48.271Z,18.17
2019-01-30T14:46:17.340Z,17.47
2019-01-30T14:48:46.921Z,21.17
2019-01-30T14:51:16.234Z,20.40
2019-01-30T14:53:45.611Z,21.30
2019-01-30T14:56:14.956Z,18.23
2019-01-30T14:58:43.983Z,21.33
2019-01-30T15:01:13.056Z,18.37
2019-01-30T15:03:42.116Z,17.73
2019-01-30T15:06:11.216Z,21.03
2019-01-30T15:08:40.234Z,21.13
2019-01-30T15:11:09.611Z,18.87
2019-01-30T15:13:39.247Z,22.40
2019-01-30T15:16:08.491Z,19.17
2019-01-30T15:18:38.224Z,19.73
2019-01-30T15:21:07.727Z,20.30
2019-01-30T15:23:37.207Z,23.57
2019-01-30T15:26:08.148Z,19.50
2019-01-30T15:28:37.518Z,22.77
2019-01-30T15:31:06.963Z,23.37
2019-01-30T15:33:36.072Z,22.73
2019-01-30T15:36:05.873Z,21.00
2019-01-30T15:38:35.121Z,21.17
2019-01-30T15:41:04.412Z,25.73
2019-01-30T15:43:35.344Z,21.57
2019-01-30T15:46:05.105Z,21.93
2019-01-30T15:48:34.409Z,22.03
2019-01-30T15:51:03.676Z,24.43
2019-01-30T15:53:33.014Z,25.27
2019-01-30T15:56:02.210Z,19.97
2019-01-30T15:58:31.453Z,23.63
2019-01-30T16:01:04.415Z,23.43
2019-01-30T16:03:44.052Z,26.47
2019-01-30T16:06:13.209Z,23.97
2019-01-30T16:08:42.467Z,27.43
2019-01-30T16:11:11.524Z,32.93
2019-01-30T16:13:40.725Z,29.40
2019-01-30T16:16:10.664Z,28.23
2019-01-30T16:18:40.274Z,26.53
2019-01-30T16:21:09.269Z,30.53
2019-01-30T16:23:38.709Z,25.53
2019-01-30T16:26:07.994Z,31.13
2019-01-30T16:28:37.289Z,27.70
2019-01-30T16:31:12.795Z,28.97
2019-01-30T16:33:41.792Z,26.93
2019-01-30T16:36:11.589Z,29.73
2019-01-30T16:38:40.729Z,28.20
2019-01-30T16:41:09.859Z,31.27
2019-01-30T16:43:38.934Z,27.83
2019-01-30T16:46:08.557Z,29.83
2019-01-30T16:48:40.828Z,30.53
2019-01-30T16:51:15.172Z,27.37
2019-01-30T16:53:44.716Z,26.23
2019-01-30T16:56:14.049Z,31.53
2019-01-30T16:58:44.744Z,30.87
2019-01-30T17:01:13.970Z,33.33
2019-01-30T17:03:43.383Z,26.87
2019-01-30T17:06:12.776Z,30.90
2019-01-30T17:08:42.017Z,30.00
2019-01-30T17:11:10.987Z,29.60
2019-01-30T17:13:40.247Z,28.53
2019-01-30T17:16:09.373Z,32.67
2019-01-30T17:18:38.810Z,28.27
2019-01-30T17:21:08.752Z,32.80
2019-01-30T17:23:38.291Z,28.27
2019-01-30T17:26:08.049Z,26.40
2019-01-30T17:28:37.209Z,28.33
2019-01-30T17:31:07.827Z,27.30
2019-01-30T17:33:36.803Z,29.67
2019-01-30T17:36:06.114Z,30.80
2019-01-30T17:38:35.588Z,32.40
2019-01-30T17:41:05.449Z,29.20
2019-01-30T17:43:34.727Z,32.60
2019-01-30T17:46:04.390Z,27.97
2019-01-30T17:48:34.021Z,28.70
2019-01-30T17:51:03.918Z,30.83
2019-01-30T17:53:33.009Z,30.60
2019-01-30T17:56:02.576Z,33.30
2019-01-30T17:58:34.338Z,23.17
2019-01-30T18:01:02.787Z,29.53
2019-01-30T18:03:32.264Z,33.03
2019-01-30T18:06:01.705Z,29.40
2019-01-30T18:08:30.969Z,27.67
2019-01-30T18:11:00.746Z,30.17
2019-01-30T18:13:30.992Z,33.20
2019-01-30T18:16:00.470Z,29.57
2019-01-30T18:18:29.568Z,29.73
2019-01-30T18:20:58.690Z,28.80
2019-01-30T18:23:27.748Z,29.23
2019-01-30T18:25:57.167Z,30.27
2019-01-30T18:28:26.630Z,29.37
2019-01-30T18:30:55.770Z,29.93
2019-01-30T18:33:24.873Z,30.73
2019-01-30T18:35:54.152Z,31.67
2019-01-30T18:38:23.462Z,32.93
2019-01-30T18:40:52.885Z,31.17
2019-01-30T18:43:22.323Z,29.43
2019-01-30T18:45:51.603Z,32.50
2019-01-30T18:48:20.494Z,29.53
2019-01-30T18:50:49.905Z,28.90
2019-01-30T18:53:19.268Z,30.50
2019-01-30T18:55:48.535Z,31.10
2019-01-30T18:58:17.668Z,31.20
2019-01-30T19:00:46.771Z,29.37
2019-01-30T19:03:15.813Z,32.60
2019-01-30T19:05:44.869Z,30.70
2019-01-30T19:08:13.990Z,32.97
2019-01-30T19:10:42.964Z,29.93
2019-01-30T19:13:11.924Z,31.90
2019-01-30T19:15:41.016Z,35.17
2019-01-30T19:18:10.231Z,32.93
2019-01-30T19:20:41.993Z,35.27
2019-01-30T19:23:11.184Z,44.03
2019-01-30T19:25:40.637Z,38.80
2019-01-30T19:28:10.164Z,35.40
2019-01-30T19:30:39.390Z,33.10
2019-01-30T19:33:09.804Z,36.47
2019-01-30T19:35:39.291Z,35.90
2019-01-30T19:38:10.168Z,33.17
2019-01-30T19:40:39.188Z,36.67
2019-01-30T19:43:08.123Z,38.73
2019-01-30T19:45:37.325Z,37.83
2019-01-30T19:48:06.944Z,35.77
2019-01-30T19:50:35.905Z,37.87
2019-01-30T19:53:05.624Z,38.50
2019-01-30T19:55:34.987Z,38.67
2019-01-30T19:58:05.420Z,41.00
2019-01-30T20:00:37.315Z,38.87
2019-01-30T20:03:09.836Z,39.00
2019-01-30T20:05:39.292Z,41.80
2019-01-30T20:08:08.806Z,43.53
2019-01-30T20:10:38.153Z,38.20
2019-01-30T20:13:08.450Z,42.33
2019-01-30T20:15:38.031Z,39.13
2019-01-30T20:18:08.217Z,38.63
2019-01-30T20:20:37.832Z,43.23
2019-01-30T20:23:07.613Z,39.90
2019-01-30T20:25:43.978Z,38.00
2019-01-30T20:28:13.217Z,39.67
2019-01-30T20:30:42.572Z,39.93
2019-01-30T20:33:12.193Z,36.63
2019-01-30T20:35:41.452Z,39.10
2019-01-30T20:38:12.032Z,41.93
2019-01-30T20:40:41.375Z,41.30
2019-01-30T20:43:11.926Z,41.40
2019-01-30T20:45:41.109Z,47.43
2019-01-30T20:48:10.628Z,42.57
2019-01-30T20:50:40.692Z,44.23
2019-01-30T20:53:09.968Z,42.63
2019-01-30T20:55:39.330Z,46.70
2019-01-30T20:58:08.526Z,44.47
2019-01-30T21:00:38.481Z,39.73
2019-01-30T21:03:08.577Z,42.10
2019-01-30T21:05:40.390Z,42.87
2019-01-30T21:08:09.624Z,42.33
2019-01-30T21:10:40.725Z,46.40
2019-01-30T21:13:10.084Z,42.07
2019-01-30T21:15:39.505Z,41.63
2019-01-30T21:18:09.565Z,46.17
2019-01-30T21:20:38.805Z,42.93
2019-01-30T21:23:08.145Z,45.43
2019-01-30T21:25:37.245Z,46.93
2019-01-30T21:28:06.749Z,44.27
2019-01-30T21:30:38.181Z,46.10
2019-01-30T21:33:07.585Z,44.73
2019-01-30T21:35:36.751Z,46.90
2019-01-30T21:38:06.496Z,46.50
2019-01-30T21:40:35.924Z,64.03
2019-01-30T21:43:05.630Z,72.80
2019-01-30T21:45:35.305Z,80.73
2019-01-30T21:48:05.089Z,71.83
2019-01-30T21:50:34.604Z,67.27
2019-01-30T21:53:04.072Z,62.10
2019-01-30T21:55:33.966Z,61.67
2019-01-30T21:58:03.375Z,51.93
2019-01-30T22:00:33.026Z,55.17
2019-01-30T22:03:02.490Z,51.73
2019-01-30T22:05:31.948Z,53.90
2019-01-30T22:08:01.747Z,50.90
2019-01-30T22:10:32.067Z,49.63
2019-01-30T22:13:01.389Z,49.77
2019-01-30T22:15:30.346Z,47.97
2019-01-30T22:18:00.026Z,52.27
2019-01-30T22:20:29.972Z,50.93
2019-01-30T22:22:59.066Z,56.37
2019-01-30T22:25:28.410Z,57.43
2019-01-30T22:27:57.846Z,50.77
2019-01-30T22:30:33.370Z,56.50
2019-01-30T22:35:49.524Z,53.13
2019-01-30T22:38:19.104Z,57.30
2019-01-30T22:40:48.323Z,51.13
2019-01-30T22:43:37.043Z,53.37
2019-01-30T22:46:06.428Z,54.23
2019-01-30T22:48:35.865Z,54.87
2019-01-30T22:51:07.124Z,54.07
2019-01-30T22:53:36.404Z,56.87
2019-01-30T22:56:06.163Z,57.20
2019-01-30T22:58:35.984Z,63.60
2019-01-30T23:01:15.160Z,63.33
2019-01-30T23:03:47.315Z,67.80
2019-01-30T23:06:43.692Z,60.40
2019-01-30T23:09:36.852Z,64.40
2019-01-30T23:12:24.052Z,59.00
2019-01-30T23:15:16.240Z,61.27
2019-01-30T23:18:05.131Z,64.70
2019-01-30T23:20:35.631Z,62.47
2019-01-30T23:23:19.694Z,56.83
2019-01-30T23:26:03.612Z,55.73
2019-01-30T23:28:50.972Z,54.23
2019-01-30T23:31:26.351Z,51.07
2019-01-30T23:34:31.760Z,53.87
2019-01-30T23:37:22.198Z,48.67
2019-01-30T23:40:13.552Z,55.07
2019-01-30T23:43:07.126Z,51.67
2019-01-30T23:45:59.390Z,50.10
2019-01-30T23:48:52.884Z,54.63
2019-01-30T23:51:26.703Z,55.87
2019-01-30T23:54:02.184Z,51.50
2019-01-30T23:56:46.343Z,55.30
2019-01-30T23:59:36.724Z,55.80
